Time;durP1;ratioP1;P1;durP2;ratioP2;P2;SDS_P1;SDS_P2;PMS_P1;PMS_P2;Temp;Humidity;BMP_temperature;BMP_pressure;BME280_temperature;BME280_humidity;BME280_pressure;Samples;Min_cycle;Max_cycle;Signal;HPM_P1;HPM_P2
2021/06/03 00:02:19;;;;;;;6.75;2.05;;;;;;;13.45;60.76;100179.17;1691031;82;21726;-72
2021/06/03 00:04:46;;;;;;;7.50;1.92;;;;;;;13.44;60.83;100178.83;1755150;80;21428;-72
2021/06/03 00:07:12;;;;;;;5.58;1.65;;;;;;;13.43;60.71;100175.34;1741514;79;21511;-72
2021/06/03 00:09:39;;;;;;;5.35;1.90;;;;;;;13.45;60.50;100174.70;1737979;80;20929;-72
2021/06/03 00:12:06;;;;;;;5.00;2.00;;;;;;;13.46;60.39;100171.06;1747657;80;20956;-72
2021/06/03 00:14:33;;;;;;;5.75;1.90;;;;;;;13.46;60.71;100175.53;1747041;79;21757;-72
2021/06/03 00:17:01;;;;;;;6.08;1.95;;;;;;;13.42;60.89;100174.16;1753502;79;21407;-72
2021/06/03 00:19:29;;;;;;;4.20;1.70;;;;;;;13.39;60.67;100167.80;1747483;78;21606;-71
2021/06/03 00:21:57;;;;;;;6.30;2.00;;;;;;;13.39;60.74;100169.13;1769602;80;21475;-72
2021/06/03 00:24:23;;;;;;;4.80;1.80;;;;;;;13.36;60.50;100168.94;1754869;79;21530;-73
2021/06/03 00:26:50;;;;;;;4.03;1.72;;;;;;;13.36;60.55;100164.12;1714604;81;22461;-72
2021/06/03 00:29:17;;;;;;;4.83;1.90;;;;;;;13.35;60.84;100169.08;1745457;79;21095;-72
2021/06/03 00:31:45;;;;;;;3.98;1.80;;;;;;;13.33;60.58;100163.92;1738701;80;20996;-72
2021/06/03 00:34:12;;;;;;;4.65;2.08;;;;;;;13.31;60.57;100163.20;1767298;79;21020;-72
2021/06/03 00:36:38;;;;;;;5.70;1.80;;;;;;;13.30;60.31;100165.52;1759081;79;20909;-72
2021/06/03 00:39:05;;;;;;;6.70;1.90;;;;;;;13.30;60.41;100167.34;1759596;79;21798;-73
2021/06/03 00:41:32;;;;;;;3.42;1.92;;;;;;;13.31;60.40;100169.84;1715480;82;21023;-72
2021/06/03 00:44:01;;;;;;;5.00;2.00;;;;;;;13.27;60.30;100163.16;1727755;79;21055;-72
2021/06/03 00:46:29;;;;;;;4.95;1.80;;;;;;;13.26;60.16;100160.66;1739114;80;21536;-72
2021/06/03 00:48:58;;;;;;;5.37;1.72;;;;;;;13.25;59.90;100165.63;1728166;80;21066;-72
2021/06/03 00:51:26;;;;;;;5.22;1.90;;;;;;;13.26;59.98;100158.01;1777516;78;21825;-72
2021/06/03 00:53:55;;;;;;;3.45;1.67;;;;;;;13.27;60.06;100163.66;1766001;79;20980;-70
2021/06/03 00:56:22;;;;;;;9.38;1.90;;;;;;;13.26;60.20;100164.64;1732708;79;21016;-72
2021/06/03 00:58:48;;;;;;;4.45;1.90;;;;;;;13.25;60.10;100164.30;1742093;80;21107;-70
2021/06/03 01:01:17;;;;;;;6.78;1.77;;;;;;;13.24;60.17;100163.95;1709168;82;21572;-70
2021/06/03 01:03:44;;;;;;;5.28;2.27;;;;;;;13.24;60.19;100171.91;1714957;81;21874;-72
2021/06/03 01:06:11;;;;;;;4.97;1.70;;;;;;;13.22;60.06;100175.17;1739912;80;21024;-72
2021/06/03 01:08:55;;;;;;;5.30;1.85;;;;;;;13.22;60.26;100167.22;1769886;79;21440;-72
2021/06/03 01:11:32;;;;;;;6.50;1.75;;;;;;;13.20;60.30;100167.36;1747744;79;21036;-72
2021/06/03 01:14:16;;;;;;;3.52;1.80;;;;;;;13.18;60.47;100169.30;1707011;79;21052;-72
2021/06/03 01:16:44;;;;;;;4.80;1.77;;;;;;;13.13;60.32;100173.72;1731060;81;21094;-71
2021/06/03 01:19:15;;;;;;;3.55;1.52;;;;;;;13.10;60.37;100166.03;1679158;83;21489;-72
2021/06/03 01:21:54;;;;;;;6.72;1.65;;;;;;;13.08;60.08;100167.16;1739951;81;21011;-72
2021/06/03 01:24:36;;;;;;;6.00;1.80;;;;;;;13.06;60.17;100169.95;1696272;82;22734;-72
2021/06/03 01:27:10;;;;;;;4.25;2.10;;;;;;;13.05;60.35;100164.31;1712506;82;21442;-72
2021/06/03 01:30:17;;;;;;;3.90;1.70;;;;;;;13.02;60.23;100164.58;1708338;82;21088;-72
2021/06/03 01:32:52;;;;;;;4.65;1.90;;;;;;;13.00;60.10;100157.75;1696078;81;21012;-71
2021/06/03 01:35:23;;;;;;;9.33;1.80;;;;;;;12.97;60.02;100164.19;1738053;80;21133;-70
2021/06/03 01:37:50;;;;;;;6.53;1.65;;;;;;;12.96;60.23;100159.86;1740474;79;21003;-72
2021/06/03 01:40:17;;;;;;;4.53;1.67;;;;;;;12.95;60.33;100167.47;1749863;80;21020;-71
2021/06/03 01:42:44;;;;;;;6.95;1.70;;;;;;;12.92;60.23;100166.41;1765721;78;21804;-70
2021/06/03 01:45:14;;;;;;;4.47;1.52;;;;;;;12.90;60.14;100167.05;1755859;78;21083;-71
2021/06/03 01:47:43;;;;;;;5.42;1.70;;;;;;;12.88;60.18;100168.52;1750129;79;20929;-71
2021/06/03 01:50:11;;;;;;;7.50;1.70;;;;;;;12.86;60.06;100161.69;1771914;78;21082;-70
2021/06/03 01:52:40;;;;;;;3.65;1.75;;;;;;;12.85;60.09;100169.30;1758342;80;21023;-72
2021/06/03 01:55:11;;;;;;;4.35;1.65;;;;;;;12.82;60.08;100161.61;1748504;79;20984;-71
2021/06/03 01:57:38;;;;;;;7.33;1.77;;;;;;;12.80;59.94;100164.41;1744264;78;20973;-71
2021/06/03 02:00:13;;;;;;;3.95;1.70;;;;;;;12.80;59.97;100157.78;1755995;80;20913;-71
2021/06/03 02:02:52;;;;;;;4.30;1.75;;;;;;;12.80;60.00;100163.08;1718907;80;21392;-71
2021/06/03 02:05:21;;;;;;;6.12;2.00;;;;;;;12.80;60.07;100160.92;1716651;80;20965;-71
2021/06/03 02:07:47;;;;;;;2.75;1.60;;;;;;;12.79;60.00;100161.91;1739573;80;21826;-71
2021/06/03 02:10:15;;;;;;;7.25;1.82;;;;;;;12.76;60.04;100159.05;1734794;81;21035;-71
2021/06/03 02:13:15;;;;;;;2.85;1.37;;;;;;;12.76;59.71;100158.22;1696161;81;21111;-73
2021/06/03 02:16:01;;;;;;;3.15;1.60;;;;;;;12.76;59.75;100161.70;1689054;83;21123;-72
2021/06/03 02:18:50;;;;;;;3.60;1.50;;;;;;;12.76;59.89;100159.55;1770099;79;21155;-72
2021/06/03 02:21:17;;;;;;;5.15;1.70;;;;;;;12.75;59.80;100157.88;1761069;78;21763;-72
2021/06/03 02:23:46;;;;;;;5.72;1.82;;;;;;;12.75;59.68;100163.17;1750338;79;21001;-74
2021/06/03 02:26:13;;;;;;;3.42;1.70;;;;;;;12.74;59.84;100160.15;1721211;80;21012;-72
2021/06/03 02:28:43;;;;;;;6.75;1.98;;;;;;;12.73;59.72;100165.10;1729364;79;21068;-74
2021/06/03 02:31:11;;;;;;;2.55;1.77;;;;;;;12.72;59.72;100164.77;1765952;79;20983;-71
2021/06/03 02:33:37;;;;;;;7.97;2.00;;;;;;;12.72;59.85;100160.78;1759814;78;21807;-73
2021/06/03 02:36:05;;;;;;;7.42;1.80;;;;;;;12.71;59.78;100166.58;1740687;78;21035;-71
2021/06/03 02:38:33;;;;;;;4.22;1.77;;;;;;;12.73;59.75;100170.41;1735218;80;21126;-73
2021/06/03 02:41:04;;;;;;;4.10;1.60;;;;;;;12.74;59.84;100162.80;1730484;79;21532;-71
2021/06/03 02:43:37;;;;;;;8.53;1.80;;;;;;;12.75;59.79;100176.42;1767547;78;21826;-74
2021/06/03 02:46:04;;;;;;;2.58;1.65;;;;;;;12.75;59.69;100174.61;1768284;78;21793;-72
2021/06/03 02:48:32;;;;;;;3.62;1.80;;;;;;;12.76;59.48;100179.42;1762757;78;21001;-71
2021/06/03 02:50:59;;;;;;;4.50;1.77;;;;;;;12.77;59.47;100175.30;1724828;80;21430;-72
2021/06/03 02:53:26;;;;;;;8.15;1.77;;;;;;;12.78;59.23;100184.92;1750407;79;20932;-73
2021/06/03 02:55:54;;;;;;;2.55;1.52;;;;;;;12.77;59.09;100175.79;1760552;79;21141;-74
2021/06/03 02:58:21;;;;;;;4.72;1.62;;;;;;;12.76;59.25;100184.23;1757299;79;21801;-73
2021/06/03 03:00:48;;;;;;;2.75;1.70;;;;;;;12.78;59.38;100184.92;1744803;79;21114;-72
2021/06/03 03:03:15;;;;;;;8.75;2.00;;;;;;;12.79;59.36;100177.80;1763910;80;21041;-73
2021/06/03 03:05:43;;;;;;;5.97;1.80;;;;;;;12.79;59.38;100175.98;1735903;80;21457;-73
2021/06/03 03:08:12;;;;;;;6.70;1.70;;;;;;;12.80;59.17;100170.20;1748569;78;21051;-72
2021/06/03 03:10:44;;;;;;;4.42;1.92;;;;;;;12.81;59.46;100167.89;1744699;79;21031;-73
2021/06/03 03:13:13;;;;;;;4.58;1.62;;;;;;;12.83;59.33;100168.09;1720768;80;21027;-72
2021/06/03 03:15:41;;;;;;;5.15;2.00;;;;;;;12.83;59.26;100170.73;1753568;79;21028;-72
2021/06/03 03:18:09;;;;;;;4.17;1.87;;;;;;;12.84;59.36;100168.95;1769220;78;21058;-73
2021/06/03 03:20:37;;;;;;;2.90;1.67;;;;;;;12.85;59.35;100180.73;1761362;79;21529;-73
2021/06/03 03:23:05;;;;;;;3.00;1.70;;;;;;;12.86;58.87;100172.30;1753403;78;22473;-73
2021/06/03 03:25:33;;;;;;;4.05;1.87;;;;;;;12.87;58.93;100178.78;1750303;80;21043;-73
2021/06/03 03:28:02;;;;;;;3.45;1.62;;;;;;;12.88;58.63;100175.63;1755700;79;21560;-73
2021/06/03 03:30:29;;;;;;;2.60;1.90;;;;;;;12.89;58.98;100183.44;1754546;78;21418;-74
2021/06/03 03:32:57;;;;;;;2.60;1.82;;;;;;;12.89;59.10;100182.61;1755353;79;21039;-73
2021/06/03 03:35:24;;;;;;;3.85;1.67;;;;;;;12.89;58.90;100179.95;1726210;80;22302;-72
2021/06/03 03:37:51;;;;;;;5.20;1.90;;;;;;;12.89;58.82;100185.26;1730123;80;21066;-72
2021/06/03 03:40:21;;;;;;;3.45;1.90;;;;;;;12.90;58.94;100181.13;1686491;83;21049;-74
2021/06/03 03:42:50;;;;;;;5.97;1.52;;;;;;;12.91;58.49;100184.62;1735455;80;21091;-76
2021/06/03 03:45:21;;;;;;;6.62;2.00;;;;;;;12.93;58.56;100183.15;1743533;80;21027;-72
2021/06/03 03:47:50;;;;;;;2.33;1.50;;;;;;;12.92;58.41;100182.31;1680921;82;21519;-71
2021/06/03 03:50:17;;;;;;;5.08;1.90;;;;;;;12.92;58.68;100186.78;1763318;79;20977;-71
2021/06/03 03:52:44;;;;;;;5.97;1.80;;;;;;;12.91;58.75;100191.25;1730930;80;21059;-72
2021/06/03 03:55:12;;;;;;;5.67;1.77;;;;;;;12.93;58.80;100192.42;1760490;78;21075;-73
2021/06/03 03:57:39;;;;;;;3.05;1.60;;;;;;;12.93;58.80;100198.56;1727471;79;21067;-73
2021/06/03 04:00:23;;;;;;;4.15;1.80;;;;;;;12.94;58.95;100191.48;1757733;78;21802;-74
2021/06/03 04:02:53;;;;;;;5.08;1.80;;;;;;;12.95;59.00;100197.13;1678378;82;21091;-73
2021/06/03 04:05:21;;;;;;;4.03;1.87;;;;;;;12.94;58.55;100194.13;1695268;81;21180;-74
2021/06/03 04:07:48;;;;;;;3.60;1.80;;;;;;;12.91;58.27;100192.58;1710260;81;21079;-74
2021/06/03 04:10:18;;;;;;;3.15;1.90;;;;;;;12.90;58.42;100193.06;1728666;81;21023;-72
2021/06/03 04:12:45;;;;;;;4.97;1.70;;;;;;;12.92;58.63;100193.41;1710437;80;21815;-73
2021/06/03 04:15:13;;;;;;;3.33;1.50;;;;;;;12.93;58.73;100198.56;1658418;84;21067;-72
2021/06/03 04:17:40;;;;;;;6.97;2.10;;;;;;;12.93;58.66;100204.36;1693514;81;21485;-74
2021/06/03 04:20:12;;;;;;;3.83;1.70;;;;;;;12.92;58.60;100198.22;1690955;82;21395;-71
2021/06/03 04:22:38;;;;;;;7.30;1.82;;;;;;;12.92;58.46;100202.20;1694856;82;21487;-72
2021/06/03 04:25:08;;;;;;;6.30;1.60;;;;;;;12.89;58.38;100202.00;1693226;82;21846;-71
2021/06/03 04:27:35;;;;;;;3.62;1.87;;;;;;;12.90;58.52;100197.53;1677309;81;21075;-72
2021/06/03 04:30:02;;;;;;;6.47;1.82;;;;;;;12.90;58.42;100202.83;1696966;82;21048;-72
2021/06/03 04:32:28;;;;;;;5.60;1.90;;;;;;;12.92;58.88;100210.15;1698229;81;21073;-69
2021/06/03 04:34:55;;;;;;;4.58;2.00;;;;;;;12.97;58.89;100205.27;1711135;80;21480;-68
2021/06/03 04:37:22;;;;;;;3.20;1.70;;;;;;;13.00;58.75;100202.83;1677301;83;21880;-70
2021/06/03 04:39:48;;;;;;;4.47;1.65;;;;;;;13.03;58.44;100203.89;1682674;82;21023;-72
2021/06/03 04:42:15;;;;;;;4.30;1.67;;;;;;;13.07;58.57;100209.24;1690254;82;21079;-70
2021/06/03 04:44:42;;;;;;;5.15;1.90;;;;;;;13.12;58.44;100211.83;1699668;81;21068;-69
2021/06/03 04:47:08;;;;;;;3.50;2.00;;;;;;;13.16;58.75;100208.39;1683154;83;21047;-70
2021/06/03 04:49:35;;;;;;;3.08;1.50;;;;;;;13.22;58.42;100199.04;1703055;81;21901;-70
2021/06/03 04:52:25;;;;;;;4.10;1.70;;;;;;;13.26;58.41;100198.62;1721540;81;20949;-69
2021/06/03 04:54:32;;;;;;;2.60;1.72;;;;;;;13.31;57.91;100206.98;1749287;79;20929;-68
2021/06/03 04:56:59;;;;;;;3.62;1.60;;;;;;;13.35;57.75;100196.94;1753328;80;21000;-68
2021/06/03 04:59:25;;;;;;;3.42;1.62;;;;;;;13.40;58.11;100202.63;1731471;79;21474;-69
2021/06/03 05:01:53;;;;;;;5.03;2.00;;;;;;;13.43;57.88;100198.38;1721824;80;21114;-70
2021/06/03 05:04:20;;;;;;;5.58;1.80;;;;;;;13.49;58.01;100207.07;1722958;82;20993;-69
2021/06/03 05:06:47;;;;;;;4.10;1.80;;;;;;;13.55;57.47;100201.20;1750902;79;21114;-69
2021/06/03 05:09:14;;;;;;;3.42;1.70;;;;;;;13.62;57.74;100211.59;1754235;79;21035;-70
2021/06/03 05:11:41;;;;;;;3.52;2.10;;;;;;;13.68;57.67;100203.02;1732253;80;20992;-69
2021/06/03 05:14:07;;;;;;;4.35;2.00;;;;;;;13.73;57.48;100211.40;1726708;80;21820;-69
2021/06/03 05:16:35;;;;;;;4.72;1.95;;;;;;;13.78;57.15;100209.62;1734222;82;21012;-68
2021/06/03 05:19:01;;;;;;;5.15;1.80;;;;;;;13.84;56.87;100208.20;1731539;81;21020;-69
2021/06/03 05:21:29;;;;;;;5.53;1.80;;;;;;;13.89;56.92;100210.75;1688097;83;21459;-69
2021/06/03 05:23:57;;;;;;;4.55;1.80;;;;;;;13.98;56.97;100211.20;1755573;79;20929;-70
2021/06/03 05:26:24;;;;;;;3.70;2.00;;;;;;;14.09;57.17;100212.84;1752107;80;22475;-69
2021/06/03 05:28:50;;;;;;;6.45;1.60;;;;;;;14.20;56.65;100211.31;1756495;78;21675;-69
2021/06/03 05:31:16;;;;;;;4.58;1.42;;;;;;;14.31;56.75;100212.92;1715916;82;21017;-69
2021/06/03 05:33:44;;;;;;;7.03;1.77;;;;;;;14.41;56.27;100194.25;1751460;80;21075;-69
2021/06/03 05:36:10;;;;;;;3.25;1.72;;;;;;;14.46;55.96;100202.13;1758508;80;20984;-69
2021/06/03 05:38:37;;;;;;;3.50;1.90;;;;;;;14.50;55.66;100200.86;1756168;80;22254;-70
2021/06/03 05:41:03;;;;;;;3.20;1.77;;;;;;;14.58;56.16;100204.09;1768461;79;20996;-69
2021/06/03 05:43:29;;;;;;;3.87;1.90;;;;;;;14.70;56.25;100204.70;1734255;81;20977;-69
2021/06/03 05:45:56;;;;;;;4.85;1.70;;;;;;;14.81;55.77;100203.13;1737979;81;21015;-69
2021/06/03 05:48:23;;;;;;;4.75;1.80;;;;;;;14.88;55.36;100198.38;1706102;82;21064;-69
2021/06/03 05:50:50;;;;;;;4.05;1.70;;;;;;;14.97;55.13;100203.77;1739724;80;21813;-69
2021/06/03 05:53:16;;;;;;;4.45;1.60;;;;;;;15.00;54.51;100214.92;1714180;81;21012;-69
2021/06/03 05:55:43;;;;;;;3.25;1.80;;;;;;;15.04;54.43;100210.12;1699254;80;21035;-69
2021/06/03 05:58:11;;;;;;;1.92;1.40;;;;;;;15.05;54.21;100214.45;1712373;81;21008;-68
2021/06/03 06:00:37;;;;;;;3.72;1.60;;;;;;;15.07;54.21;100208.50;1732230;80;20995;-69
2021/06/03 06:03:12;;;;;;;4.50;1.52;;;;;;;15.12;54.55;100212.34;1759092;79;21882;-69
2021/06/03 06:08:18;;;;;;;6.35;1.60;;;;;;;15.31;54.15;100206.00;1743326;80;21142;-70
2021/06/03 06:10:44;;;;;;;6.00;1.80;;;;;;;15.42;53.96;100201.73;1759434;78;20964;-70
2021/06/03 06:13:11;;;;;;;5.78;1.70;;;;;;;15.57;53.54;100205.16;1765280;78;20931;-70
2021/06/03 06:15:39;;;;;;;4.70;1.50;;;;;;;15.71;53.13;100209.92;1757543;78;21030;-69
2021/06/03 06:18:06;;;;;;;5.78;1.85;;;;;;;15.77;52.94;100205.30;1763371;78;20984;-69
2021/06/03 06:20:33;;;;;;;5.90;2.00;;;;;;;15.84;53.11;100212.16;1758976;78;21072;-68
2021/06/03 06:23:02;;;;;;;6.10;1.60;;;;;;;15.92;52.96;100213.03;1750570;80;20947;-71
2021/06/03 06:25:29;;;;;;;4.78;1.80;;;;;;;15.96;52.45;100214.38;1741806;80;21086;-72
2021/06/03 06:27:57;;;;;;;5.67;2.00;;;;;;;16.00;52.91;100206.38;1741520;80;21822;-72
2021/06/03 06:30:26;;;;;;;6.03;1.75;;;;;;;16.11;53.28;100208.41;1764623;79;21541;-69
2021/06/03 06:32:54;;;;;;;4.33;1.70;;;;;;;16.19;52.93;100203.95;1738584;80;21023;-73
2021/06/03 06:35:20;;;;;;;3.40;1.70;;;;;;;16.23;51.95;100205.31;1662491;84;20963;-72
2021/06/03 06:37:47;;;;;;;4.92;1.95;;;;;;;16.18;51.43;100212.95;1666733;83;21093;-72
2021/06/03 06:40:15;;;;;;;5.37;1.50;;;;;;;16.14;52.22;100202.28;1665599;83;22710;-71
2021/06/03 06:42:41;;;;;;;5.72;1.62;;;;;;;16.18;51.94;100198.78;1676631;81;21568;-73
2021/06/03 06:45:09;;;;;;;3.50;1.60;;;;;;;16.24;51.39;100209.64;1701859;81;21068;-73
2021/06/03 06:47:36;;;;;;;7.03;1.50;;;;;;;16.33;50.63;100205.17;1763858;80;21054;-76
2021/06/03 06:50:08;;;;;;;3.33;1.47;;;;;;;16.40;50.77;100210.66;1755035;79;20976;-72
2021/06/03 06:52:35;;;;;;;5.58;1.82;;;;;;;16.47;50.81;100205.86;1741091;79;21827;-74
2021/06/03 06:55:07;;;;;;;3.17;1.40;;;;;;;16.52;50.09;100206.20;1752523;78;21008;-73
2021/06/03 06:57:34;;;;;;;3.77;1.55;;;;;;;16.57;49.48;100209.70;1726107;80;21012;-74
2021/06/03 07:00:01;;;;;;;3.80;1.47;;;;;;;16.60;48.76;100208.89;1701784;81;21512;-73
2021/06/03 07:02:27;;;;;;;4.70;1.65;;;;;;;16.63;48.98;100206.39;1734321;80;21067;-73
2021/06/03 07:04:54;;;;;;;5.15;1.65;;;;;;;16.65;49.90;100207.55;1726438;80;21767;-74
2021/06/03 07:07:20;;;;;;;2.25;1.60;;;;;;;16.70;49.45;100214.61;1703921;82;20994;-73
2021/06/03 07:09:47;;;;;;;6.97;1.77;;;;;;;16.72;48.55;100205.94;1658354;84;21476;-70
2021/06/03 07:12:15;;;;;;;3.80;1.50;;;;;;;16.70;48.96;100212.77;1676595;83;20992;-71
2021/06/03 07:14:41;;;;;;;2.27;1.40;;;;;;;16.73;49.18;100211.59;1679495;82;21021;-72
2021/06/03 07:17:08;;;;;;;2.20;1.30;;;;;;;16.79;49.51;100214.45;1660665;84;21688;-71
2021/06/03 07:19:34;;;;;;;6.90;1.57;;;;;;;16.90;49.32;100218.62;1684289;82;21222;-73
2021/06/03 07:22:02;;;;;;;3.05;1.30;;;;;;;17.01;49.28;100213.45;1693511;82;21103;-73
2021/06/03 07:24:29;;;;;;;5.58;1.87;;;;;;;17.11;48.39;100221.61;1689258;82;21108;-73
2021/06/03 07:26:55;;;;;;;2.85;1.52;;;;;;;17.20;47.51;100217.61;1731120;80;21086;-71
2021/06/03 07:29:22;;;;;;;4.08;1.35;;;;;;;17.25;45.07;100219.25;1682371;83;22151;-72
2021/06/03 07:31:48;;;;;;;5.37;1.27;;;;;;;17.29;46.10;100218.77;1730141;80;21087;-74
2021/06/03 07:34:15;;;;;;;3.05;1.47;;;;;;;17.40;46.30;100221.08;1722307;80;21044;-73
2021/06/03 07:36:43;;;;;;;4.37;1.45;;;;;;;17.49;44.84;100223.23;1729581;80;21040;-73
2021/06/03 07:39:10;;;;;;;5.05;1.82;;;;;;;17.52;45.79;100228.73;1749709;80;21030;-72
2021/06/03 07:41:38;;;;;;;4.00;1.55;;;;;;;17.55;44.68;100221.20;1755606;79;20988;-75
2021/06/03 07:44:05;;;;;;;3.15;1.50;;;;;;;17.52;45.63;100221.55;1740834;80;21039;-74
2021/06/03 07:46:32;;;;;;;3.30;1.40;;;;;;;17.50;45.26;100222.73;1741847;80;21011;-75
2021/06/03 07:48:59;;;;;;;1.90;1.20;;;;;;;17.50;45.25;100237.42;1768807;79;20928;-75
2021/06/03 07:51:26;;;;;;;3.77;1.40;;;;;;;17.51;44.82;100218.55;1734885;82;21004;-75
2021/06/03 07:53:53;;;;;;;6.70;1.32;;;;;;;17.56;45.16;100237.55;1745649;82;21830;-74
2021/06/03 07:56:19;;;;;;;3.25;1.50;;;;;;;17.64;45.23;100231.36;1755538;79;21363;-73
2021/06/03 07:58:46;;;;;;;4.53;1.50;;;;;;;17.76;45.48;100236.73;1779801;79;21349;-76
2021/06/03 08:01:12;;;;;;;3.90;1.32;;;;;;;17.90;45.62;100236.00;1734162;80;21422;-75
2021/06/03 08:03:38;;;;;;;5.28;1.50;;;;;;;18.01;44.90;100238.29;1750946;79;21515;-74
2021/06/03 08:06:05;;;;;;;3.15;1.52;;;;;;;18.18;45.68;100244.41;1775846;80;21712;-74
2021/06/03 08:08:36;;;;;;;4.37;1.47;;;;;;;18.40;45.62;100244.63;1763694;79;21352;-73
2021/06/03 08:11:01;;;;;;;9.00;1.60;;;;;;;18.61;45.10;100240.81;1751777;79;21016;-72
2021/06/03 08:13:28;;;;;;;2.85;1.35;;;;;;;18.73;42.75;100250.16;1766378;79;20984;-73
2021/06/03 08:15:55;;;;;;;3.65;1.30;;;;;;;18.74;43.52;100249.65;1755785;78;21071;-74
2021/06/03 08:18:23;;;;;;;3.05;1.47;;;;;;;18.77;43.82;100249.28;1753348;80;21827;-73
2021/06/03 08:20:55;;;;;;;3.85;1.30;;;;;;;18.75;43.19;100256.66;1762554;80;21491;-73
2021/06/03 08:23:24;;;;;;;3.70;1.30;;;;;;;18.74;42.89;100261.69;1756152;79;21075;-75
2021/06/03 08:25:52;;;;;;;5.33;1.22;;;;;;;18.77;41.97;100258.65;1754536;80;21056;-75
2021/06/03 08:28:19;;;;;;;2.85;1.22;;;;;;;18.82;42.77;100253.11;1752292;79;21511;-75
2021/06/03 08:30:46;;;;;;;2.58;1.17;;;;;;;18.94;41.38;100253.52;1773250;79;22615;-76
2021/06/03 08:33:13;;;;;;;3.62;1.10;;;;;;;19.03;41.57;100254.29;1770958;80;21055;-73
2021/06/03 08:35:40;;;;;;;4.50;1.62;;;;;;;19.14;42.26;100254.69;1761771;79;20993;-74
2021/06/03 08:38:10;;;;;;;3.95;1.27;;;;;;;19.19;40.96;100261.34;1762153;80;20980;-76
2021/06/03 08:40:43;;;;;;;4.10;1.25;;;;;;;19.10;39.26;100249.86;1757012;80;21039;-73
2021/06/03 08:43:10;;;;;;;3.10;1.20;;;;;;;18.92;40.70;100259.56;1761830;79;27327;-75
2021/06/03 08:45:39;;;;;;;4.22;1.42;;;;;;;18.80;40.32;100262.30;1710186;82;21480;-74
2021/06/03 08:48:06;;;;;;;6.53;1.50;;;;;;;18.69;41.00;100259.53;1728900;81;21035;-74
2021/06/03 08:50:36;;;;;;;6.00;1.20;;;;;;;18.74;41.34;100269.21;1732797;79;21344;-74
2021/06/03 08:53:05;;;;;;;5.45;1.55;;;;;;;18.73;41.66;100273.41;1763229;80;21425;-74
2021/06/03 08:58:20;;;;;;;3.98;1.27;;;;;;;18.76;41.80;100261.83;1767329;80;20999;-75
2021/06/03 09:00:48;;;;;;;3.98;1.30;;;;;;;18.76;41.19;100269.86;1736507;82;21495;-74
2021/06/03 09:03:15;;;;;;;6.28;1.10;;;;;;;18.77;41.93;100268.84;1716936;81;21109;-76
2021/06/03 09:05:41;;;;;;;3.05;1.37;;;;;;;18.86;41.89;100275.81;1741041;81;21077;-72
2021/06/03 09:08:26;;;;;;;2.12;1.20;;;;;;;19.01;42.30;100269.20;1716638;81;21810;-74
2021/06/03 09:11:03;;;;;;;5.80;1.30;;;;;;;19.20;42.25;100272.37;1757678;79;21004;-72
2021/06/03 09:13:34;;;;;;;7.05;1.30;;;;;;;19.39;42.08;100267.84;1718877;81;21051;-72
2021/06/03 09:16:26;;;;;;;2.30;1.20;;;;;;;19.65;41.65;100266.12;1737631;82;21087;-72
2021/06/03 09:18:58;;;;;;;4.95;1.40;;;;;;;19.87;40.02;100263.87;1737561;81;20956;-73
2021/06/03 09:21:52;;;;;;;6.17;1.75;;;;;;;19.96;40.07;100268.63;1724070;81;21028;-73
2021/06/03 09:24:21;;;;;;;3.85;1.27;;;;;;;20.01;39.86;100272.95;1768747;79;20833;-72
2021/06/03 09:26:54;;;;;;;4.90;1.35;;;;;;;20.07;39.18;100265.99;1758822;80;21047;-72
2021/06/03 09:29:28;;;;;;;4.10;1.45;;;;;;;20.07;40.90;100276.72;1734873;80;21017;-72
2021/06/03 09:32:10;;;;;;;5.58;1.50;;;;;;;20.30;41.32;100272.09;1724257;80;22106;-73
2021/06/03 09:34:39;;;;;;;4.53;1.35;;;;;;;20.40;38.72;100269.95;1711834;81;21842;-72
2021/06/03 09:37:08;;;;;;;2.27;1.40;;;;;;;20.35;38.74;100268.83;1738140;81;20997;-72
2021/06/03 09:39:41;;;;;;;2.95;1.30;;;;;;;20.30;39.04;100262.19;1732487;81;21016;-73
2021/06/03 09:42:19;;;;;;;5.12;1.70;;;;;;;20.26;39.28;100257.37;1777964;80;21213;-73
2021/06/03 09:44:50;;;;;;;9.50;1.57;;;;;;;20.22;39.70;100266.83;1746820;80;21060;-73
2021/06/03 09:47:21;;;;;;;4.83;1.60;;;;;;;20.20;38.92;100265.67;1721985;81;21775;-73
2021/06/03 09:49:56;;;;;;;2.58;1.30;;;;;;;20.11;40.23;100276.17;1694541;81;21060;-74
2021/06/03 09:52:33;;;;;;;4.05;1.60;;;;;;;20.03;40.11;100263.38;1714895;82;21048;-74
2021/06/03 09:55:02;;;;;;;4.60;1.25;;;;;;;19.97;41.78;100267.10;1711043;82;21008;-72
2021/06/03 09:57:36;;;;;;;3.80;1.30;;;;;;;20.04;41.41;100261.01;1721666;82;21040;-72
2021/06/03 10:00:11;;;;;;;4.87;1.30;;;;;;;20.09;41.12;100262.64;1714129;81;21858;-73
2021/06/03 10:02:43;;;;;;;4.87;1.37;;;;;;;20.08;40.72;100270.37;1726745;82;20961;-73
2021/06/03 10:05:19;;;;;;;4.62;1.47;;;;;;;19.99;39.59;100270.45;1728402;82;20997;-73
2021/06/03 10:08:04;;;;;;;5.30;1.17;;;;;;;19.93;40.88;100271.69;1728328;81;20997;-71
2021/06/03 10:10:33;;;;;;;4.42;1.50;;;;;;;20.00;41.61;100269.44;1733845;82;21486;-77
2021/06/03 10:13:09;;;;;;;4.72;1.52;;;;;;;20.11;41.84;100273.50;1722978;81;21078;-77
2021/06/03 10:15:43;;;;;;;4.78;1.60;;;;;;;20.13;42.11;100271.97;1701381;80;21055;-73
2021/06/03 10:18:15;;;;;;;3.33;1.90;;;;;;;20.16;41.62;100268.90;1771088;78;20975;-77
2021/06/03 10:20:47;;;;;;;3.20;1.65;;;;;;;20.11;41.23;100262.77;1767939;79;21075;-73
2021/06/03 10:23:19;;;;;;;6.03;1.72;;;;;;;20.16;40.97;100267.56;1755299;80;21015;-73
2021/06/03 10:25:48;;;;;;;2.00;1.30;;;;;;;20.22;40.27;100272.19;1744513;80;21828;-75
2021/06/03 10:28:23;;;;;;;3.45;1.45;;;;;;;20.31;41.01;100279.11;1762882;80;20976;-75
2021/06/03 10:30:58;;;;;;;4.47;1.52;;;;;;;20.37;40.80;100286.42;1702429;82;21004;-74
2021/06/03 10:33:27;;;;;;;8.33;1.50;;;;;;;20.38;40.01;100278.70;1736503;81;21468;-75
2021/06/03 10:35:57;;;;;;;2.20;1.17;;;;;;;20.31;40.10;100275.09;1728241;80;21019;-76
2021/06/03 10:38:24;;;;;;;5.12;1.50;;;;;;;20.32;40.96;100283.45;1762993;79;21897;-74
2021/06/03 10:40:55;;;;;;;6.03;1.50;;;;;;;20.40;40.79;100278.50;1758404;79;21001;-75
2021/06/03 10:43:22;;;;;;;5.70;1.57;;;;;;;20.44;39.67;100277.95;1715154;82;21016;-76
2021/06/03 10:45:48;;;;;;;2.90;1.50;;;;;;;20.47;41.14;100282.14;1719760;81;21001;-75
2021/06/03 10:48:15;;;;;;;5.17;1.30;;;;;;;20.45;40.79;100277.44;1734537;82;21519;-74
2021/06/03 10:50:46;;;;;;;4.60;1.45;;;;;;;20.40;40.54;100283.87;1720013;81;22468;-73
2021/06/03 10:53:23;;;;;;;27.73;2.37;;;;;;;20.33;40.68;100285.63;1746389;80;21098;-75
2021/06/03 10:55:51;;;;;;;8.63;1.50;;;;;;;20.26;40.59;100293.07;1764758;80;21040;-73
2021/06/03 10:58:21;;;;;;;4.95;1.47;;;;;;;20.12;39.33;100289.91;1756745;79;21064;-74
2021/06/03 11:01:08;;;;;;;4.72;1.57;;;;;;;19.98;40.65;100288.08;1759484;80;20984;-75
2021/06/03 11:03:42;;;;;;;3.72;1.50;;;;;;;19.90;40.79;100290.33;1764567;80;20901;-74
2021/06/03 11:06:12;;;;;;;4.50;1.57;;;;;;;20.08;41.19;100291.81;1778638;80;20923;-73
2021/06/03 11:08:48;;;;;;;5.53;1.70;;;;;;;20.37;40.43;100286.94;1759293;80;21538;-73
2021/06/03 11:11:23;;;;;;;4.03;1.42;;;;;;;20.66;39.78;100290.09;1717113;79;21048;-73
2021/06/03 11:13:56;;;;;;;4.22;1.50;;;;;;;20.89;39.91;100286.72;1747476;80;20973;-74
2021/06/03 11:16:39;;;;;;;4.78;1.50;;;;;;;20.97;40.16;100285.78;1734885;80;21067;-74
2021/06/03 11:19:08;;;;;;;4.28;1.70;;;;;;;21.02;40.49;100291.39;1736336;81;21205;-72
2021/06/03 11:21:47;;;;;;;15.20;1.50;;;;;;;20.98;40.86;100294.98;1758353;80;21072;-73
2021/06/03 11:24:37;;;;;;;6.62;1.70;;;;;;;20.89;41.45;100297.46;1742628;80;21480;-74
2021/06/03 11:27:10;;;;;;;6.80;1.70;;;;;;;20.91;41.41;100302.64;1757722;80;21008;-75
2021/06/03 11:29:54;;;;;;;26.20;2.65;;;;;;;21.12;42.59;100299.44;1765688;80;21831;-74
2021/06/03 11:32:28;;;;;;;10.85;1.77;;;;;;;21.38;40.82;100294.86;1747266;80;23181;-76
2021/06/03 11:34:58;;;;;;;5.65;1.72;;;;;;;21.54;40.06;100296.44;1764054;79;21056;-75
2021/06/03 11:37:36;;;;;;;7.25;1.60;;;;;;;21.68;40.75;100302.22;1748543;80;21056;-76
2021/06/03 11:40:16;;;;;;;4.67;1.40;;;;;;;21.83;40.36;100300.79;1747868;80;21070;-76
2021/06/03 11:42:46;;;;;;;5.45;1.50;;;;;;;21.91;40.40;100297.13;1709695;83;21818;-75